Terminal Aerodrome Forecast
Issued by NWS

Home | Current Version | Previous Version | Text Only | Print | Product List | Glossary On
Versions: 1 2 3 4 5 6 7 8 9 10 11 12 13 14 15 16
000
FTUS46 KPDT 061122
TAFRDM
TAF
KRDM 061122Z 0612/0712 17004KT P6SM SCT050 BKN100
     FM061800 34010G18KT P6SM VCSH BKN050 OVC100
     FM062100 31012G20KT P6SM VCTS BKN050CB OVC100CB
     FM070300 34010KT P6SM VCSH SCT060 BKN120
     FM070600 30007KT P6SM FEW060 SCT120=

USA.gov is the U.S. government's official web portal to all federal, state and local government web resources and services.